createdAt,value
2022-08-04T00:05:52.975Z,16.2
2022-08-04T00:20:18.462Z,16.3
2022-08-04T00:34:47.164Z,16.2
2022-08-04T00:49:14.874Z,16.2
2022-08-04T01:03:42.998Z,16.3
2022-08-04T01:18:09.254Z,16.2
2022-08-04T01:32:43.120Z,16.2
2022-08-04T01:47:10.501Z,16.2
2022-08-04T02:01:36.838Z,15.9
2022-08-04T02:16:03.375Z,16.2
2022-08-04T02:30:28.766Z,16.2
2022-08-04T02:44:55.126Z,16
2022-08-04T02:59:23.430Z,16
2022-08-04T03:13:50.332Z,16.1
2022-08-04T03:28:18.336Z,16.1
2022-08-04T03:42:44.950Z,16.3
2022-08-04T03:57:13.201Z,16.2
2022-08-04T04:11:58.486Z,16.1
2022-08-04T04:26:15.430Z,16.3
2022-08-04T04:40:42.662Z,16.3
2022-08-04T04:55:10.435Z,16.5
2022-08-04T05:09:39.384Z,16.7
2022-08-04T05:24:07.456Z,17.1
2022-08-04T05:38:36.539Z,17.2
2022-08-04T05:53:10.929Z,17.3
2022-08-04T06:08:14.511Z,17.3
2022-08-04T06:22:27.850Z,17.1
2022-08-04T06:36:50.498Z,18
2022-08-04T06:51:49.663Z,18.4
2022-08-04T07:06:15.216Z,18.7
2022-08-04T07:20:38.087Z,17.9
2022-08-04T07:36:12.155Z,19.8
2022-08-04T07:50:29.711Z,18.4
2022-08-04T08:05:02.238Z,16.9
2022-08-04T08:19:32.383Z,16.9
2022-08-04T08:34:04.323Z,16.7
2022-08-04T08:48:36.203Z,16.2
2022-08-04T09:03:07.177Z,17.9
2022-08-04T09:17:41.744Z,16
2022-08-04T09:32:08.291Z,16.3
2022-08-04T09:46:25.732Z,16.1
2022-08-04T10:00:51.474Z,15.7
2022-08-04T10:15:18.956Z,15.6
2022-08-04T10:29:45.140Z,14.8
2022-08-04T10:44:15.383Z,14.8
2022-08-04T10:58:49.331Z,15
2022-08-04T11:13:30.867Z,14
2022-08-04T11:27:46.953Z,14.1
2022-08-04T11:42:14.642Z,14
2022-08-04T11:56:43.108Z,14.3
2022-08-04T12:11:10.160Z,12.4
2022-08-04T12:25:45.681Z,12.9
2022-08-04T12:40:32.018Z,11.9
2022-08-04T12:54:41.506Z,13
2022-08-04T13:09:18.736Z,14.7
2022-08-04T13:24:34.191Z,14.2
2022-08-04T13:38:39.187Z,15.7
2022-08-04T13:53:07.070Z,15.2
2022-08-04T14:07:37.488Z,16.3
2022-08-04T14:22:01.019Z,15.9
2022-08-04T14:36:29.431Z,16.7
2022-08-04T14:50:55.241Z,17.2
2022-08-04T15:06:18.561Z,17.5
2022-08-04T15:20:21.358Z,17.4
2022-08-04T15:34:48.987Z,16.7
2022-08-04T15:49:16.045Z,16.9
2022-08-04T16:04:02.188Z,16.9
2022-08-04T16:18:27.751Z,16.7
2022-08-04T16:32:47.344Z,16.6
2022-08-04T16:47:23.349Z,16.7
2022-08-04T17:01:43.469Z,15.5
2022-08-04T17:16:18.973Z,17.5
2022-08-04T17:30:36.526Z,17.7
2022-08-04T17:45:01.967Z,17.7
2022-08-04T18:00:00.492Z,18.7
2022-08-04T18:14:11.595Z,18.7
2022-08-04T18:28:37.584Z,18.9
2022-08-04T18:43:06.630Z,18.7
2022-08-04T18:58:17.275Z,18.7
2022-08-04T19:12:37.506Z,19.2
2022-08-04T19:26:57.649Z,18.7
2022-08-04T19:41:29.375Z,18.6
2022-08-04T19:55:52.565Z,18.8
2022-08-04T20:10:24.270Z,18.7
2022-08-04T20:25:39.037Z,18.9
2022-08-04T20:39:55.681Z,19.1
2022-08-04T20:54:30.816Z,19
2022-08-04T21:08:58.134Z,19.3
2022-08-04T21:23:18.373Z,19.3
2022-08-04T21:38:02.925Z,19.2
2022-08-04T21:52:20.307Z,19.1
2022-08-04T22:39:07.893Z,18.9
2022-08-04T22:53:20.713Z,18.9
2022-08-04T23:07:51.690Z,19
2022-08-04T23:22:43.017Z,19
2022-08-04T23:36:59.423Z,19.3
2022-08-04T23:51:22.300Z,19.6
